sensor_id;sensor_type;location;lat;lon;timestamp;pressure;altitude;pressure_sealevel;temperature;humidity
49030;BME280;43337;52.070;4.508;2023-06-01T00:01:43;102593.28;;;12.56;100.00
49030;BME280;43337;52.070;4.508;2023-06-01T00:04:08;102590.75;;;12.51;100.00
49030;BME280;43337;52.070;4.508;2023-06-01T00:06:34;102592.38;;;12.57;100.00
49030;BME280;43337;52.070;4.508;2023-06-01T00:09:01;102601.19;;;12.57;100.00
49030;BME280;43337;52.070;4.508;2023-06-01T00:11:27;102601.22;;;12.56;100.00
49030;BME280;43337;52.070;4.508;2023-06-01T00:13:53;102583.78;;;12.47;100.00
49030;BME280;43337;52.070;4.508;2023-06-01T00:16:18;102609.13;;;12.56;100.00
49030;BME280;43337;52.070;4.508;2023-06-01T00:18:44;102602.91;;;12.58;100.00
49030;BME280;43337;52.070;4.508;2023-06-01T00:21:10;102597.63;;;12.58;100.00
49030;BME280;43337;52.070;4.508;2023-06-01T00:23:35;102607.22;;;12.62;100.00
49030;BME280;43337;52.070;4.508;2023-06-01T00:26:01;102597.53;;;12.63;100.00
49030;BME280;43337;52.070;4.508;2023-06-01T00:28:26;102595.78;;;12.62;100.00
49030;BME280;43337;52.070;4.508;2023-06-01T00:30:52;102599.34;;;12.61;100.00
49030;BME280;43337;52.070;4.508;2023-06-01T00:33:19;102591.50;;;12.58;100.00
49030;BME280;43337;52.070;4.508;2023-06-01T00:35:44;102576.59;;;12.54;100.00
49030;BME280;43337;52.070;4.508;2023-06-01T00:38:10;102580.06;;;12.56;100.00
49030;BME280;43337;52.070;4.508;2023-06-01T00:40:36;102587.94;;;12.59;100.00
49030;BME280;43337;52.070;4.508;2023-06-01T00:43:01;102589.66;;;12.60;100.00
49030;BME280;43337;52.070;4.508;2023-06-01T00:45:27;102584.31;;;12.63;100.00
49030;BME280;43337;52.070;4.508;2023-06-01T00:47:53;102585.16;;;12.65;100.00
49030;BME280;43337;52.070;4.508;2023-06-01T00:50:18;102585.13;;;12.66;100.00
49030;BME280;43337;52.070;4.508;2023-06-01T00:52:45;102578.09;;;12.65;100.00
49030;BME280;43337;52.070;4.508;2023-06-01T00:55:12;102569.44;;;12.59;100.00
49030;BME280;43337;52.070;4.508;2023-06-01T00:57:42;102578.91;;;12.67;100.00
49030;BME280;43337;52.070;4.508;2023-06-01T01:00:09;102586.84;;;12.67;100.00
49030;BME280;43337;52.070;4.508;2023-06-01T01:02:39;102592.13;;;12.67;100.00
49030;BME280;43337;52.070;4.508;2023-06-01T01:05:07;102576.44;;;12.61;100.00
49030;BME280;43337;52.070;4.508;2023-06-01T01:07:51;102595.72;;;12.65;100.00
49030;BME280;43337;52.070;4.508;2023-06-01T01:13:01;102587.81;;;12.63;100.00
49030;BME280;43337;52.070;4.508;2023-06-01T01:16:45;102587.81;;;12.63;100.00
49030;BME280;43337;52.070;4.508;2023-06-01T01:19:00;102592.28;;;12.61;100.00
49030;BME280;43337;52.070;4.508;2023-06-01T01:21:36;102579.16;;;12.58;100.00
49030;BME280;43337;52.070;4.508;2023-06-01T01:27:10;102580.88;;;12.59;100.00
49030;BME280;43337;52.070;4.508;2023-06-01T01:29:40;102579.97;;;12.60;100.00
49030;BME280;43337;52.070;4.508;2023-06-01T01:32:07;102572.94;;;12.61;100.00
49030;BME280;43337;52.070;4.508;2023-06-01T01:34:34;102569.50;;;12.57;100.00
49030;BME280;43337;52.070;4.508;2023-06-01T01:37:00;102564.38;;;12.50;100.00
49030;BME280;43337;52.070;4.508;2023-06-01T01:39:25;102577.44;;;12.56;100.00
49030;BME280;43337;52.070;4.508;2023-06-01T01:41:51;102585.41;;;12.54;100.00
49030;BME280;43337;52.070;4.508;2023-06-01T01:44:16;102578.34;;;12.55;100.00
49030;BME280;43337;52.070;4.508;2023-06-01T01:46:44;102586.16;;;12.59;100.00
49030;BME280;43337;52.070;4.508;2023-06-01T01:49:46;102586.25;;;12.55;100.00
49030;BME280;43337;52.070;4.508;2023-06-01T01:52:26;102588.03;;;12.54;100.00
49030;BME280;43337;52.070;4.508;2023-06-01T01:54:52;102575.81;;;12.50;100.00
49030;BME280;43337;52.070;4.508;2023-06-01T01:57:19;102575.66;;;12.56;100.00
49030;BME280;43337;52.070;4.508;2023-06-01T01:59:46;102585.28;;;12.59;100.00
49030;BME280;43337;52.070;4.508;2023-06-01T02:02:11;102562.50;;;12.55;100.00
49030;BME280;43337;52.070;4.508;2023-06-01T02:04:41;102572.03;;;12.60;100.00
49030;BME280;43337;52.070;4.508;2023-06-01T02:07:07;102575.59;;;12.59;100.00
49030;BME280;43337;52.070;4.508;2023-06-01T02:09:33;102573.00;;;12.56;100.00
49030;BME280;43337;52.070;4.508;2023-06-01T02:11:58;102566.09;;;12.51;100.00
49030;BME280;43337;52.070;4.508;2023-06-01T02:14:24;102568.84;;;12.46;100.00
49030;BME280;43337;52.070;4.508;2023-06-01T02:16:49;102563.59;;;12.44;100.00
49030;BME280;43337;52.070;4.508;2023-06-01T02:19:15;102564.63;;;12.39;100.00
49030;BME280;43337;52.070;4.508;2023-06-01T02:21:42;102566.31;;;12.41;100.00
49030;BME280;43337;52.070;4.508;2023-06-01T02:24:08;102557.66;;;12.35;100.00
49030;BME280;43337;52.070;4.508;2023-06-01T02:26:34;102569.97;;;12.36;100.00
49030;BME280;43337;52.070;4.508;2023-06-01T02:29:00;102562.94;;;12.35;100.00
49030;BME280;43337;52.070;4.508;2023-06-01T02:31:27;102554.28;;;12.28;100.00
49030;BME280;43337;52.070;4.508;2023-06-01T02:33:53;102544.75;;;12.21;100.00
49030;BME280;43337;52.070;4.508;2023-06-01T02:36:18;102563.00;;;12.32;100.00
49030;BME280;43337;52.070;4.508;2023-06-01T02:38:43;102559.56;;;12.28;100.00
49030;BME280;43337;52.070;4.508;2023-06-01T02:41:09;102556.22;;;12.20;100.00
49030;BME280;43337;52.070;4.508;2023-06-01T02:43:34;102561.44;;;12.23;100.00
49030;BME280;43337;52.070;4.508;2023-06-01T02:46:02;102556.31;;;12.15;100.00
49030;BME280;43337;52.070;4.508;2023-06-01T02:48:28;102554.59;;;12.13;100.00
49030;BME280;43337;52.070;4.508;2023-06-01T02:50:54;102562.56;;;12.11;100.00
49030;BME280;43337;52.070;4.508;2023-06-01T02:53:20;102564.31;;;12.12;100.00
49030;BME280;43337;52.070;4.508;2023-06-01T02:55:46;102549.50;;;12.05;100.00
49030;BME280;43337;52.070;4.508;2023-06-01T02:58:11;102558.16;;;12.12;100.00
49030;BME280;43337;52.070;4.508;2023-06-01T03:00:42;102556.38;;;12.12;100.00
49030;BME280;43337;52.070;4.508;2023-06-01T03:03:08;102553.81;;;12.09;100.00
49030;BME280;43337;52.070;4.508;2023-06-01T03:05:34;102561.66;;;12.12;100.00
49030;BME280;43337;52.070;4.508;2023-06-01T03:08:00;102535.47;;;12.02;100.00
49030;BME280;43337;52.070;4.508;2023-06-01T03:10:26;102546.09;;;11.98;100.00
49030;BME280;43337;52.070;4.508;2023-06-01T03:12:51;102542.75;;;11.90;100.00
49030;BME280;43337;52.070;4.508;2023-06-01T03:15:17;102552.41;;;11.93;100.00
49030;BME280;43337;52.070;4.508;2023-06-01T03:17:43;102568.13;;;11.97;100.00
49030;BME280;43337;52.070;4.508;2023-06-01T03:20:09;102555.84;;;11.96;100.00
49030;BME280;43337;52.070;4.508;2023-06-01T03:22:41;102561.06;;;11.98;100.00
49030;BME280;43337;52.070;4.508;2023-06-01T03:25:07;102552.41;;;11.93;100.00
49030;BME280;43337;52.070;4.508;2023-06-01T03:27:32;102568.97;;;12.00;100.00
49030;BME280;43337;52.070;4.508;2023-06-01T03:29:57;102565.38;;;12.02;100.00
49030;BME280;43337;52.070;4.508;2023-06-01T03:32:23;102558.44;;;12.00;100.00
49030;BME280;43337;52.070;4.508;2023-06-01T03:34:48;102565.34;;;12.05;100.00
49030;BME280;43337;52.070;4.508;2023-06-01T03:37:13;102563.56;;;12.06;100.00
49030;BME280;43337;52.070;4.508;2023-06-01T03:39:40;102562.69;;;12.05;100.00
49030;BME280;43337;52.070;4.508;2023-06-01T03:42:06;102568.00;;;12.04;100.00
49030;BME280;43337;52.070;4.508;2023-06-01T03:44:32;102566.31;;;12.01;100.00
49030;BME280;43337;52.070;4.508;2023-06-01T03:46:57;102568.03;;;12.02;100.00
49030;BME280;43337;52.070;4.508;2023-06-01T03:49:23;102555.84;;;11.96;100.00
49030;BME280;43337;52.070;4.508;2023-06-01T03:51:48;102561.97;;;11.97;100.00
49030;BME280;43337;52.070;4.508;2023-06-01T03:54:14;102544.56;;;11.88;100.00
49030;BME280;43337;52.070;4.508;2023-06-01T03:56:39;102557.53;;;11.99;100.00
49030;BME280;43337;52.070;4.508;2023-06-01T03:59:05;102561.03;;;12.01;100.00
49030;BME280;43337;52.070;4.508;2023-06-01T04:01:35;102560.09;;;12.04;100.00
49030;BME280;43337;52.070;4.508;2023-06-01T04:04:01;102562.78;;;12.01;100.00
49030;BME280;43337;52.070;4.508;2023-06-01T04:06:29;102571.63;;;11.98;100.00
49030;BME280;43337;52.070;4.508;2023-06-01T04:08:54;102549.00;;;11.88;100.00
49030;BME280;43337;52.070;4.508;2023-06-01T04:11:25;102558.53;;;11.93;100.00
49030;BME280;43337;52.070;4.508;2023-06-01T04:13:51;102560.16;;;12.01;100.00
49030;BME280;43337;52.070;4.508;2023-06-01T04:16:18;102563.63;;;12.03;100.00
49030;BME280;43337;52.070;4.508;2023-06-01T04:18:43;102566.19;;;12.07;100.00
49030;BME280;43337;52.070;4.508;2023-06-01T04:21:09;102563.50;;;12.09;100.00
49030;BME280;43337;52.070;4.508;2023-06-01T04:23:35;102565.22;;;12.10;100.00
49030;BME280;43337;52.070;4.508;2023-06-01T04:26:02;102558.25;;;12.07;100.00
49030;BME280;43337;52.070;4.508;2023-06-01T04:28:31;102553.00;;;12.06;100.00
49030;BME280;43337;52.070;4.508;2023-06-01T04:30:57;102560.91;;;12.06;100.00
49030;BME280;43337;52.070;4.508;2023-06-01T04:33:23;102563.56;;;12.06;100.00
49030;BME280;43337;52.070;4.508;2023-06-01T04:35:50;102555.78;;;11.98;100.00
49030;BME280;43337;52.070;4.508;2023-06-01T04:38:18;102544.56;;;11.88;100.00
49030;BME280;43337;52.070;4.508;2023-06-01T04:40:43;102568.19;;;11.94;100.00
49030;BME280;43337;52.070;4.508;2023-06-01T04:43:12;102567.25;;;11.97;100.00
49030;BME280;43337;52.070;4.508;2023-06-01T04:45:38;102555.84;;;11.95;100.00
49030;BME280;43337;52.070;4.508;2023-06-01T04:48:04;102553.16;;;12.00;100.00
49030;BME280;43337;52.070;4.508;2023-06-01T04:50:36;102559.22;;;12.03;100.00
49030;BME280;43337;52.070;4.508;2023-06-01T04:53:03;102556.59;;;12.03;100.00
49030;BME280;43337;52.070;4.508;2023-06-01T04:55:29;102572.16;;;12.15;100.00
49030;BME280;43337;52.070;4.508;2023-06-01T04:57:55;102566.88;;;12.15;100.00
49030;BME280;43337;52.070;4.508;2023-06-01T05:00:21;102568.56;;;12.19;100.00
49030;BME280;43337;52.070;4.508;2023-06-01T05:02:47;102585.06;;;12.29;100.00
49030;BME280;43337;52.070;4.508;2023-06-01T05:05:14;102574.44;;;12.32;100.00
49030;BME280;43337;52.070;4.508;2023-06-01T05:07:41;102579.69;;;12.34;100.00
49030;BME280;43337;52.070;4.508;2023-06-01T05:10:11;102574.38;;;12.35;100.00
49030;BME280;43337;52.070;4.508;2023-06-01T05:12:37;102571.78;;;12.34;100.00
49030;BME280;43337;52.070;4.508;2023-06-01T05:15:04;102572.59;;;12.36;100.00
49030;BME280;43337;52.070;4.508;2023-06-01T05:17:31;102575.06;;;12.43;100.00
49030;BME280;43337;52.070;4.508;2023-06-01T05:19:56;102575.91;;;12.45;100.00
49030;BME280;43337;52.070;4.508;2023-06-01T05:22:25;102568.91;;;12.43;100.00
49030;BME280;43337;52.070;4.508;2023-06-01T05:24:51;102559.16;;;12.45;100.00
49030;BME280;43337;52.070;4.508;2023-06-01T05:27:17;102573.09;;;12.53;100.00
49030;BME280;43337;52.070;4.508;2023-06-01T05:29:42;102569.50;;;12.57;100.00
49030;BME280;43337;52.070;4.508;2023-06-01T05:32:09;102564.03;;;12.63;100.00
49030;BME280;43337;52.070;4.508;2023-06-01T05:34:35;102569.22;;;12.68;100.00
49030;BME280;43337;52.070;4.508;2023-06-01T05:37:01;102573.56;;;12.70;100.00
49030;BME280;43337;52.070;4.508;2023-06-01T05:39:26;102566.56;;;12.69;100.00
49030;BME280;43337;52.070;4.508;2023-06-01T05:41:52;102571.72;;;12.74;100.00
49030;BME280;43337;52.070;4.508;2023-06-01T05:44:18;102567.34;;;12.73;100.00
49030;BME280;43337;52.070;4.508;2023-06-01T05:46:44;102571.66;;;12.76;100.00
49030;BME280;43337;52.070;4.508;2023-06-01T05:49:09;102575.97;;;12.80;100.00
49030;BME280;43337;52.070;4.508;2023-06-01T05:51:34;102571.50;;;12.83;100.00
49030;BME280;43337;52.070;4.508;2023-06-01T05:54:03;102564.63;;;12.76;100.00
49030;BME280;43337;52.070;4.508;2023-06-01T05:56:29;102572.28;;;12.88;100.00
49030;BME280;43337;52.070;4.508;2023-06-01T05:58:54;102578.38;;;12.90;100.00
49030;BME280;43337;52.070;4.508;2023-06-01T06:01:20;102578.38;;;12.90;100.00
49030;BME280;43337;52.070;4.508;2023-06-01T06:03:45;102581.81;;;12.94;100.00
49030;BME280;43337;52.070;4.508;2023-06-01T06:06:11;102559.88;;;12.90;100.00
49030;BME280;43337;52.070;4.508;2023-06-01T06:08:36;102564.09;;;12.98;100.00
49030;BME280;43337;52.070;4.508;2023-06-01T06:11:02;102563.28;;;12.95;100.00
49030;BME280;43337;52.070;4.508;2023-06-01T06:13:27;102566.59;;;13.04;100.00
49030;BME280;43337;52.070;4.508;2023-06-01T06:15:52;102576.16;;;13.09;100.00
49030;BME280;43337;52.070;4.508;2023-06-01T06:18:18;102576.06;;;13.12;100.00
49030;BME280;43337;52.070;4.508;2023-06-01T06:20:45;102554.06;;;13.10;100.00
49030;BME280;43337;52.070;4.508;2023-06-01T06:23:10;102565.31;;;13.20;100.00
49030;BME280;43337;52.070;4.508;2023-06-01T06:25:36;102566.28;;;13.16;100.00
49030;BME280;43337;52.070;4.508;2023-06-01T06:28:05;102568.72;;;13.25;100.00
49030;BME280;43337;52.070;4.508;2023-06-01T06:30:30;102565.94;;;13.30;100.00
49030;BME280;43337;52.070;4.508;2023-06-01T06:32:55;102557.88;;;13.36;100.00
49030;BME280;43337;52.070;4.508;2023-06-01T06:35:21;102564.78;;;13.41;100.00
49030;BME280;43337;52.070;4.508;2023-06-01T06:37:47;102568.31;;;13.40;100.00
49030;BME280;43337;52.070;4.508;2023-06-01T06:40:12;102560.38;;;13.40;100.00
49030;BME280;43337;52.070;4.508;2023-06-01T06:42:37;102574.41;;;13.44;100.00
49030;BME280;43337;52.070;4.508;2023-06-01T06:45:03;102569.81;;;13.51;100.00
49030;BME280;43337;52.070;4.508;2023-06-01T06:47:30;102575.13;;;13.51;100.00
49030;BME280;43337;52.070;4.508;2023-06-01T06:49:55;102575.03;;;13.54;100.00
49030;BME280;43337;52.070;4.508;2023-06-01T06:52:21;102569.63;;;13.58;100.00
49030;BME280;43337;52.070;4.508;2023-06-01T06:54:46;102575.72;;;13.60;100.00
49030;BME280;43337;52.070;4.508;2023-06-01T06:57:11;102568.69;;;13.59;100.00
49030;BME280;43337;52.070;4.508;2023-06-01T06:59:38;102578.06;;;13.71;100.00
49030;BME280;43337;52.070;4.508;2023-06-01T07:02:03;102585.00;;;13.75;100.00
49030;BME280;43337;52.070;4.508;2023-06-01T07:04:29;102580.72;;;13.71;100.00
49030;BME280;43337;52.070;4.508;2023-06-01T07:06:55;102580.59;;;13.76;100.00
49030;BME280;43337;52.070;4.508;2023-06-01T07:09:20;102586.44;;;13.87;100.00
49030;BME280;43337;52.070;4.508;2023-06-01T07:11:46;102589.72;;;13.97;100.00
49030;BME280;43337;52.070;4.508;2023-06-01T07:14:13;102571.91;;;14.02;100.00
49030;BME280;43337;52.070;4.508;2023-06-01T07:16:39;102587.56;;;14.09;100.00
49030;BME280;43337;52.070;4.508;2023-06-01T07:19:04;102582.19;;;14.12;100.00
49030;BME280;43337;52.070;4.508;2023-06-01T07:21:30;102591.63;;;14.23;100.00
49030;BME280;43337;52.070;4.508;2023-06-01T07:23:55;102582.66;;;14.27;100.00
49030;BME280;43337;52.070;4.508;2023-06-01T07:26:21;102593.84;;;14.36;100.00
49030;BME280;43337;52.070;4.508;2023-06-01T07:28:50;102585.00;;;14.37;100.00
49030;BME280;43337;52.070;4.508;2023-06-01T07:31:18;102591.94;;;14.41;100.00
49030;BME280;43337;52.070;4.508;2023-06-01T07:33:43;102591.75;;;14.49;100.00
49030;BME280;43337;52.070;4.508;2023-06-01T07:36:09;102592.41;;;14.56;100.00
49030;BME280;43337;52.070;4.508;2023-06-01T07:38:35;102596.69;;;14.60;100.00
49030;BME280;43337;52.070;4.508;2023-06-01T07:41:01;102602.53;;;14.71;100.00
49030;BME280;43337;52.070;4.508;2023-06-01T07:43:26;102592.59;;;14.78;100.00
49030;BME280;43337;52.070;4.508;2023-06-01T07:45:51;102598.59;;;14.83;100.00
49030;BME280;43337;52.070;4.508;2023-06-01T07:48:17;102592.25;;;14.88;100.00
49030;BME280;43337;52.070;4.508;2023-06-01T07:50:42;102597.25;;;14.98;100.00
49030;BME280;43337;52.070;4.508;2023-06-01T07:53:08;102598.88;;;15.02;100.00
49030;BME280;43337;52.070;4.508;2023-06-01T07:55:34;102594.09;;;15.13;100.00
49030;BME280;43337;52.070;4.508;2023-06-01T07:57:59;102594.84;;;15.17;100.00
49030;BME280;43337;52.070;4.508;2023-06-01T08:00:25;102590.16;;;15.25;100.00
49030;BME280;43337;52.070;4.508;2023-06-01T08:02:51;102598.94;;;15.27;100.00
49030;BME280;43337;52.070;4.508;2023-06-01T08:05:18;102589.97;;;15.31;100.00
49030;BME280;43337;52.070;4.508;2023-06-01T08:07:44;102592.63;;;15.31;100.00
49030;BME280;43337;52.070;4.508;2023-06-01T08:10:12;102585.69;;;15.27;100.00
49030;BME280;43337;52.070;4.508;2023-06-01T08:12:38;102579.69;;;15.47;100.00
49030;BME280;43337;52.070;4.508;2023-06-01T08:15:04;102573.00;;;15.60;100.00
49030;BME280;43337;52.070;4.508;2023-06-01T08:17:29;102582.41;;;15.70;100.00
49030;BME280;43337;52.070;4.508;2023-06-01T08:19:55;102579.81;;;15.69;100.00
49030;BME280;43337;52.070;4.508;2023-06-01T08:22:22;102565.09;;;15.58;100.00
49030;BME280;43337;52.070;4.508;2023-06-01T08:24:48;102575.47;;;15.66;100.00
49030;BME280;43337;52.070;4.508;2023-06-01T08:27:22;102576.94;;;15.75;100.00
49030;BME280;43337;52.070;4.508;2023-06-01T08:29:48;102574.91;;;15.81;100.00
49030;BME280;43337;52.070;4.508;2023-06-01T08:32:14;102574.44;;;15.95;100.00
49030;BME280;43337;52.070;4.508;2023-06-01T08:34:42;102571.53;;;16.01;100.00
49030;BME280;43337;52.070;4.508;2023-06-01T08:37:07;102567.06;;;16.02;100.00
49030;BME280;43337;52.070;4.508;2023-06-01T08:39:33;102566.88;;;16.06;100.00
49030;BME280;43337;52.070;4.508;2023-06-01T08:42:08;102571.00;;;16.15;100.00
49030;BME280;43337;52.070;4.508;2023-06-01T08:44:41;102570.94;;;16.17;100.00
49030;BME280;43337;52.070;4.508;2023-06-01T08:47:08;102575.09;;;16.24;100.00
49030;BME280;43337;52.070;4.508;2023-06-01T08:49:35;102580.19;;;16.30;100.00
49030;BME280;43337;52.070;4.508;2023-06-01T08:52:06;102580.81;;;16.36;100.00
49030;BME280;43337;52.070;4.508;2023-06-01T08:54:32;102564.81;;;16.38;100.00
49030;BME280;43337;52.070;4.508;2023-06-01T08:57:04;102577.44;;;16.55;100.00
49030;BME280;43337;52.070;4.508;2023-06-01T08:59:31;102567.16;;;16.68;100.00
49030;BME280;43337;52.070;4.508;2023-06-01T09:01:57;102565.03;;;16.77;98.66
49030;BME280;43337;52.070;4.508;2023-06-01T09:04:23;102558.25;;;16.91;98.11
49030;BME280;43337;52.070;4.508;2023-06-01T09:06:48;102556.88;;;17.02;97.65
49030;BME280;43337;52.070;4.508;2023-06-01T09:09:13;102558.03;;;17.17;97.56
49030;BME280;43337;52.070;4.508;2023-06-01T09:11:39;102549.34;;;17.34;98.28
49030;BME280;43337;52.070;4.508;2023-06-01T09:14:34;102559.72;;;17.61;92.02
49030;BME280;43337;52.070;4.508;2023-06-01T09:16:59;102543.22;;;17.71;95.84
49030;BME280;43337;52.070;4.508;2023-06-01T09:19:40;102544.00;;;17.75;90.18
49030;BME280;43337;52.070;4.508;2023-06-01T09:22:06;102547.34;;;17.80;91.82
49030;BME280;43337;52.070;4.508;2023-06-01T09:24:32;102546.81;;;17.91;91.62
49030;BME280;43337;52.070;4.508;2023-06-01T09:27:01;102545.59;;;17.98;90.53
49030;BME280;43337;52.070;4.508;2023-06-01T09:29:26;102538.41;;;18.00;90.19
49030;BME280;43337;52.070;4.508;2023-06-01T09:31:52;102531.91;;;18.05;89.45
49030;BME280;43337;52.070;4.508;2023-06-01T09:34:20;102542.94;;;18.17;88.05
49030;BME280;43337;52.070;4.508;2023-06-01T09:36:46;102539.28;;;18.19;87.59
49030;BME280;43337;52.070;4.508;2023-06-01T09:39:14;102537.91;;;18.29;88.10
49030;BME280;43337;52.070;4.508;2023-06-01T09:41:54;102536.47;;;18.41;84.57
49030;BME280;43337;52.070;4.508;2023-06-01T09:44:29;102548.38;;;18.51;82.57
49030;BME280;43337;52.070;4.508;2023-06-01T09:47:00;102540.25;;;18.54;85.41
49030;BME280;43337;52.070;4.508;2023-06-01T09:49:36;102548.09;;;18.58;78.64
49030;BME280;43337;52.070;4.508;2023-06-01T09:54:29;102543.91;;;18.71;81.25
49030;BME280;43337;52.070;4.508;2023-06-01T09:56:57;102542.03;;;18.73;80.98
49030;BME280;43337;52.070;4.508;2023-06-01T09:59:23;102539.38;;;18.73;80.40
49030;BME280;43337;52.070;4.508;2023-06-01T10:01:51;102535.22;;;18.85;81.28
49030;BME280;43337;52.070;4.508;2023-06-01T10:04:21;102532.03;;;18.95;80.91
49030;BME280;43337;52.070;4.508;2023-06-01T10:06:47;102531.06;;;19.14;80.98
49030;BME280;43337;52.070;4.508;2023-06-01T10:09:17;102525.16;;;19.24;78.21
49030;BME280;43337;52.070;4.508;2023-06-01T10:11:44;102522.34;;;19.27;76.61
49030;BME280;43337;52.070;4.508;2023-06-01T10:14:10;102522.09;;;19.32;77.99
49030;BME280;43337;52.070;4.508;2023-06-01T10:16:36;102524.53;;;19.37;77.96
49030;BME280;43337;52.070;4.508;2023-06-01T10:19:01;102531.38;;;19.42;78.74
49030;BME280;43337;52.070;4.508;2023-06-01T10:21:27;102511.72;;;19.43;77.15
49030;BME280;43337;52.070;4.508;2023-06-01T10:23:54;102526.06;;;19.58;76.13
49030;BME280;43337;52.070;4.508;2023-06-01T10:26:20;102526.81;;;19.62;74.95
49030;BME280;43337;52.070;4.508;2023-06-01T10:28:47;102527.16;;;19.71;75.68
49030;BME280;43337;52.070;4.508;2023-06-01T10:31:39;102517.34;;;19.72;71.39
49030;BME280;43337;52.070;4.508;2023-06-01T10:34:06;102525.03;;;19.78;74.44
49030;BME280;43337;52.070;4.508;2023-06-01T10:39:32;102503.63;;;19.78;70.55
49030;BME280;43337;52.070;4.508;2023-06-01T10:57:31;102513.59;;;20.55;71.29
49030;BME280;43337;52.070;4.508;2023-06-01T11:13:22;102503.84;;;20.54;69.18
49030;BME280;43337;52.070;4.508;2023-06-01T11:23:52;102499.31;;;20.70;68.01
49030;BME280;43337;52.070;4.508;2023-06-01T11:26:21;102502.97;;;20.69;69.00
49030;BME280;43337;52.070;4.508;2023-06-01T11:28:50;102498.28;;;20.73;69.13
49030;BME280;43337;52.070;4.508;2023-06-01T11:31:17;102496.38;;;20.75;68.43
49030;BME280;43337;52.070;4.508;2023-06-01T11:33:48;102495.50;;;20.75;68.25
49030;BME280;43337;52.070;4.508;2023-06-01T11:36:18;102498.13;;;20.90;68.43
49030;BME280;43337;52.070;4.508;2023-06-01T11:38:45;102492.44;;;20.96;67.03
49030;BME280;43337;52.070;4.508;2023-06-01T11:41:11;102487.66;;;21.02;67.40
49030;BME280;43337;52.070;4.508;2023-06-01T11:43:37;102501.88;;;21.02;66.79
49030;BME280;43337;52.070;4.508;2023-06-01T11:46:08;102499.88;;;20.91;65.75
49030;BME280;43337;52.070;4.508;2023-06-01T11:48:36;102492.44;;;20.96;67.00
49030;BME280;43337;52.070;4.508;2023-06-01T11:51:02;102489.19;;;21.06;65.87
49030;BME280;43337;52.070;4.508;2023-06-01T11:53:29;102491.59;;;21.10;66.44
49030;BME280;43337;52.070;4.508;2023-06-01T11:55:59;102497.16;;;21.21;66.60
49030;BME280;43337;52.070;4.508;2023-06-01T11:58:26;102494.22;;;21.26;66.14
49030;BME280;43337;52.070;4.508;2023-06-01T12:00:52;102490.69;;;21.26;64.78
49030;BME280;43337;52.070;4.508;2023-06-01T12:03:18;102488.63;;;21.29;65.11
49030;BME280;43337;52.070;4.508;2023-06-01T12:05:44;102474.50;;;21.27;65.62
49030;BME280;43337;52.070;4.508;2023-06-01T12:08:23;102490.03;;;21.51;66.18
49030;BME280;43337;52.070;4.508;2023-06-01T12:10:51;102485.34;;;21.68;65.45
49030;BME280;43337;52.070;4.508;2023-06-01T12:13:18;102490.22;;;21.48;64.21
49030;BME280;43337;52.070;4.508;2023-06-01T12:15:44;102481.13;;;21.36;65.80
49030;BME280;43337;52.070;4.508;2023-06-01T12:18:10;102466.16;;;21.17;65.92
49030;BME280;43337;52.070;4.508;2023-06-01T12:20:40;102476.09;;;21.15;66.42
49030;BME280;43337;52.070;4.508;2023-06-01T12:25:47;102488.47;;;21.32;66.67
49030;BME280;43337;52.070;4.508;2023-06-01T12:28:13;102493.09;;;21.44;67.32
49030;BME280;43337;52.070;4.508;2023-06-01T12:30:38;102504.28;;;21.51;67.03
49030;BME280;43337;52.070;4.508;2023-06-01T12:33:03;102495.69;;;21.46;66.67
49030;BME280;43337;52.070;4.508;2023-06-01T12:35:31;102472.38;;;21.32;67.33
49030;BME280;43337;52.070;4.508;2023-06-01T12:38:07;102482.19;;;21.48;65.04
49030;BME280;43337;52.070;4.508;2023-06-01T12:40:34;102503.16;;;21.55;68.06
49030;BME280;43337;52.070;4.508;2023-06-01T12:43:00;102503.25;;;21.54;68.64
49030;BME280;43337;52.070;4.508;2023-06-01T12:45:34;102495.88;;;21.57;66.68
49030;BME280;43337;52.070;4.508;2023-06-01T12:48:01;102505.34;;;21.63;68.45
49030;BME280;43337;52.070;4.508;2023-06-01T12:50:26;102495.78;;;21.73;68.06
49030;BME280;43337;52.070;4.508;2023-06-01T12:52:52;102491.84;;;21.79;67.23
49030;BME280;43337;52.070;4.508;2023-06-01T12:55:17;102499.59;;;21.83;67.67
49030;BME280;43337;52.070;4.508;2023-06-01T12:57:43;102502.38;;;21.82;66.14
49030;BME280;43337;52.070;4.508;2023-06-01T13:00:09;102495.00;;;21.71;66.00
49030;BME280;43337;52.070;4.508;2023-06-01T13:02:34;102497.78;;;21.55;65.81
49030;BME280;43337;52.070;4.508;2023-06-01T13:05:00;102503.31;;;21.52;66.71
49030;BME280;43337;52.070;4.508;2023-06-01T13:07:26;102496.75;;;21.58;66.34
49030;BME280;43337;52.070;4.508;2023-06-01T13:09:51;102489.66;;;21.57;65.78
49030;BME280;43337;52.070;4.508;2023-06-01T13:12:17;102494.25;;;21.55;65.88
49030;BME280;43337;52.070;4.508;2023-06-01T13:14:43;102494.44;;;21.66;65.76
49030;BME280;43337;52.070;4.508;2023-06-01T13:17:08;102489.94;;;21.66;65.61
49030;BME280;43337;52.070;4.508;2023-06-01T13:19:33;102474.31;;;21.44;65.60
49030;BME280;43337;52.070;4.508;2023-06-01T13:21:59;102492.22;;;21.44;66.01
49030;BME280;43337;52.070;4.508;2023-06-01T13:24:24;102497.69;;;21.42;66.89
49030;BME280;43337;52.070;4.508;2023-06-01T13:26:50;102495.81;;;21.29;65.98
49030;BME280;43337;52.070;4.508;2023-06-01T13:29:16;102498.03;;;21.22;66.40
49030;BME280;43337;52.070;4.508;2023-06-01T13:31:41;102493.22;;;21.13;66.78
49030;BME280;43337;52.070;4.508;2023-06-01T13:34:06;102484.44;;;21.11;67.63